createdAt,value
2018-12-01T00:01:41.904Z,99166.00
2018-12-01T00:03:45.954Z,99170.00
2018-12-01T00:05:52.069Z,99157.00
2018-12-01T00:07:56.831Z,99151.00
2018-12-01T00:10:00.958Z,99150.00
2018-12-01T00:12:05.854Z,99151.00
2018-12-01T00:14:09.998Z,99158.00
2018-12-01T00:16:14.016Z,99153.00
2018-12-01T00:20:23.482Z,99163.00
2018-12-01T00:22:27.510Z,99160.00
2018-12-01T00:24:31.556Z,99159.00
2018-12-01T00:26:35.719Z,99159.00
2018-12-01T00:28:39.724Z,99162.00
2018-12-01T00:30:43.759Z,99160.00
2018-12-01T00:32:49.867Z,99153.00
2018-12-01T00:34:53.973Z,99158.00
2018-12-01T00:36:58.105Z,99154.00
2018-12-01T00:39:02.126Z,99163.00
2018-12-01T00:41:06.301Z,99154.00
2018-12-01T00:43:10.362Z,99155.00
2018-12-01T00:45:16.939Z,99148.00
2018-12-01T00:47:20.970Z,99160.00
2018-12-01T00:49:25.009Z,99164.00
2018-12-01T00:51:29.105Z,99164.00
2018-12-01T00:53:33.159Z,99166.00
2018-12-01T00:55:37.255Z,99166.00
2018-12-01T00:57:41.272Z,99161.00
2018-12-01T00:59:45.351Z,99159.00
2018-12-01T01:01:49.426Z,99162.00
2018-12-01T01:03:53.537Z,99160.00
2018-12-01T01:05:57.678Z,99160.00
2018-12-01T01:08:01.977Z,99157.00
2018-12-01T01:10:09.615Z,99157.00
2018-12-01T01:12:13.848Z,99162.00
2018-12-01T01:14:17.880Z,99162.00
2018-12-01T01:16:21.996Z,99164.00
2018-12-01T01:18:26.045Z,99155.00
2018-12-01T01:20:30.086Z,99153.00
2018-12-01T01:22:34.113Z,99151.00
2018-12-01T01:24:39.085Z,99156.00
2018-12-01T01:26:43.214Z,99167.00
2018-12-01T01:28:47.270Z,99164.00
2018-12-01T01:30:51.357Z,99163.00
2018-12-01T01:33:12.557Z,99161.00
2018-12-01T01:35:16.614Z,99163.00
2018-12-01T01:37:20.678Z,99165.00
2018-12-01T01:39:24.859Z,99160.00
2018-12-01T01:41:28.955Z,99161.00
2018-12-01T01:43:32.961Z,99163.00
2018-12-01T01:45:37.069Z,99164.00
2018-12-01T01:47:41.372Z,99162.00
2018-12-01T01:49:45.402Z,99157.00
2018-12-01T01:51:49.562Z,99160.00
2018-12-01T01:53:53.611Z,99156.00
2018-12-01T01:55:57.660Z,99157.00
2018-12-01T01:58:01.826Z,99158.00
2018-12-01T02:00:14.036Z,99157.00
2018-12-01T02:02:20.134Z,99159.00
2018-12-01T02:04:24.770Z,99151.00
2018-12-01T02:06:31.264Z,99154.00
2018-12-01T02:08:35.298Z,99154.00
2018-12-01T02:10:39.352Z,99147.00
2018-12-01T02:12:43.370Z,99146.00
2018-12-01T02:14:47.561Z,99147.00
2018-12-01T02:16:51.629Z,99149.00
2018-12-01T02:18:55.770Z,99145.00
2018-12-01T02:20:59.832Z,99147.00
2018-12-01T02:23:03.894Z,99141.00
2018-12-01T02:25:12.245Z,99148.00
2018-12-01T02:27:16.292Z,99143.00
2018-12-01T02:29:20.726Z,99147.00
2018-12-01T02:31:24.864Z,99142.00
2018-12-01T02:33:28.911Z,99142.00
2018-12-01T02:35:33.074Z,99147.00
2018-12-01T02:37:37.237Z,99140.00
2018-12-01T02:39:41.291Z,99137.00
2018-12-01T02:41:45.318Z,99138.00
2018-12-01T02:45:07.581Z,99140.00
2018-12-01T02:47:11.638Z,99136.00
2018-12-01T02:49:15.790Z,99135.00
2018-12-01T02:51:19.886Z,99138.00
2018-12-01T02:53:24.106Z,99135.00
2018-12-01T02:55:28.201Z,99136.00
2018-12-01T02:57:32.542Z,99135.00
2018-12-01T02:59:36.582Z,99139.00
2018-12-01T03:01:41.221Z,99140.00
2018-12-01T03:03:45.264Z,99151.00
2018-12-01T03:05:49.303Z,99147.00
2018-12-01T03:07:53.800Z,99141.00
2018-12-01T03:09:57.863Z,99143.00
2018-12-01T03:12:01.938Z,99136.00
2018-12-01T03:14:06.467Z,99140.00
2018-12-01T03:16:10.547Z,99139.00
2018-12-01T03:18:15.133Z,99132.00
2018-12-01T03:20:19.462Z,99137.00
2018-12-01T03:22:23.573Z,99127.00
2018-12-01T03:24:27.585Z,99130.00
2018-12-01T03:26:31.628Z,99133.00
2018-12-01T03:28:36.072Z,99133.00
2018-12-01T03:30:40.130Z,99127.00
2018-12-01T03:32:44.184Z,99132.00
2018-12-01T03:34:48.229Z,99127.00
2018-12-01T03:36:52.281Z,99128.00
2018-12-01T03:38:56.314Z,99126.00
2018-12-01T03:41:00.366Z,99138.00
2018-12-01T03:43:04.441Z,99140.00
2018-12-01T03:45:11.101Z,99142.00
2018-12-01T03:47:15.269Z,99145.00
2018-12-01T03:49:19.316Z,99141.00
2018-12-01T03:51:23.323Z,99132.00
2018-12-01T03:53:27.442Z,99141.00
2018-12-01T03:55:33.254Z,99133.00
2018-12-01T03:57:37.319Z,99139.00
2018-12-01T03:59:41.452Z,99133.00
2018-12-01T04:01:45.505Z,99122.00
2018-12-01T04:03:49.574Z,99128.00
2018-12-01T04:05:53.658Z,99136.00
2018-12-01T04:07:57.758Z,99128.00
2018-12-01T04:10:01.846Z,99147.00
2018-12-01T04:12:06.166Z,99150.00
2018-12-01T04:14:10.297Z,99145.00
2018-12-01T04:16:15.218Z,99148.00
2018-12-01T04:18:19.269Z,99142.00
2018-12-01T04:20:23.380Z,99150.00
2018-12-01T04:22:27.696Z,99143.00
2018-12-01T04:24:31.811Z,99140.00
2018-12-01T04:26:35.891Z,99148.00
2018-12-01T04:28:39.914Z,99146.00
2018-12-01T04:30:43.941Z,99142.00
2018-12-01T04:32:48.068Z,99154.00
2018-12-01T04:34:52.155Z,99160.00
2018-12-01T04:36:56.321Z,99167.00
2018-12-01T04:39:00.450Z,99149.00
2018-12-01T04:41:04.528Z,99153.00
2018-12-01T04:43:08.594Z,99156.00
2018-12-01T04:45:12.672Z,99161.00
2018-12-01T04:47:17.433Z,99159.00
2018-12-01T04:49:21.510Z,99162.00
2018-12-01T04:51:25.537Z,99165.00
2018-12-01T04:53:29.632Z,99159.00
2018-12-01T04:55:33.746Z,99165.00
2018-12-01T04:57:37.794Z,99162.00
2018-12-01T04:59:41.884Z,99163.00
2018-12-01T05:01:45.974Z,99167.00
2018-12-01T05:03:50.177Z,99172.00
2018-12-01T05:05:54.209Z,99174.00
2018-12-01T05:07:58.423Z,99178.00
2018-12-01T05:10:02.561Z,99187.00
2018-12-01T05:12:07.122Z,99190.00
2018-12-01T05:14:11.229Z,99203.00
2018-12-01T05:16:15.390Z,99195.00
2018-12-01T05:18:19.548Z,99191.00
2018-12-01T05:20:24.858Z,99198.00
2018-12-01T05:22:28.964Z,99198.00
2018-12-01T05:24:33.002Z,99192.00
2018-12-01T05:26:37.059Z,99200.00
2018-12-01T05:28:41.210Z,99192.00
2018-12-01T05:30:45.267Z,99188.00
2018-12-01T05:32:49.553Z,99193.00
2018-12-01T05:34:53.649Z,99192.00
2018-12-01T05:36:57.745Z,99189.00
2018-12-01T05:39:01.780Z,99183.00
2018-12-01T05:41:06.400Z,99176.00
2018-12-01T05:43:10.485Z,99192.00
2018-12-01T05:45:20.869Z,99177.00
2018-12-01T05:47:24.974Z,99183.00
2018-12-01T05:49:29.133Z,99186.00
2018-12-01T05:51:33.166Z,99175.00
2018-12-01T05:53:37.244Z,99192.00
2018-12-01T05:55:41.291Z,99173.00
2018-12-01T05:57:45.328Z,99178.00
2018-12-01T05:59:49.429Z,99181.00
2018-12-01T06:01:53.517Z,99178.00
2018-12-01T06:03:57.590Z,99179.00
2018-12-01T06:06:01.630Z,99186.00
2018-12-01T06:08:06.066Z,99185.00
2018-12-01T06:10:20.306Z,99191.00
2018-12-01T06:12:24.337Z,99188.00
2018-12-01T06:14:28.456Z,99188.00
2018-12-01T06:16:32.498Z,99183.00
2018-12-01T06:18:36.609Z,99199.00
2018-12-01T06:20:40.709Z,99191.00
2018-12-01T06:22:44.761Z,99191.00
2018-12-01T06:24:48.936Z,99185.00
2018-12-01T06:26:53.017Z,99179.00
2018-12-01T06:28:57.221Z,99184.00
2018-12-01T06:31:01.288Z,99186.00
2018-12-01T06:33:05.713Z,99176.00
2018-12-01T06:35:09.952Z,99176.00
2018-12-01T06:37:14.189Z,99177.00
2018-12-01T06:39:18.339Z,99160.00
2018-12-01T06:41:22.436Z,99174.00
2018-12-01T06:43:26.529Z,99169.00
2018-12-01T06:45:30.705Z,99170.00
2018-12-01T06:47:34.812Z,99171.00
2018-12-01T06:49:38.914Z,99169.00
2018-12-01T06:51:42.954Z,99162.00
2018-12-01T06:53:47.005Z,99164.00
2018-12-01T06:55:51.048Z,99174.00
2018-12-01T06:57:55.175Z,99163.00
2018-12-01T06:59:59.243Z,99172.00
2018-12-01T07:02:03.301Z,99180.00
2018-12-01T07:04:07.318Z,99171.00
2018-12-01T07:06:11.431Z,99182.00
2018-12-01T07:08:16.384Z,99186.00
2018-12-01T07:10:21.726Z,99188.00
2018-12-01T07:12:25.793Z,99190.00
2018-12-01T07:14:29.919Z,99185.00
2018-12-01T07:16:34.080Z,99192.00
2018-12-01T07:19:20.457Z,99194.00
2018-12-01T07:21:24.510Z,99197.00
2018-12-01T07:23:28.678Z,99182.00
2018-12-01T07:25:32.727Z,99180.00
2018-12-01T07:27:36.773Z,99164.00
2018-12-01T07:29:40.882Z,99173.00
2018-12-01T07:31:44.993Z,99174.00
2018-12-01T07:33:49.065Z,99173.00
2018-12-01T07:35:53.182Z,99176.00
2018-12-01T07:37:57.519Z,99177.00
2018-12-01T07:40:01.548Z,99170.00
2018-12-01T07:42:05.830Z,99171.00
2018-12-01T07:44:09.862Z,99179.00
2018-12-01T07:46:14.046Z,99175.00
2018-12-01T07:48:18.048Z,99176.00
2018-12-01T07:50:22.144Z,99175.00
2018-12-01T07:52:26.240Z,99171.00
2018-12-01T07:54:30.285Z,99170.00
2018-12-01T07:56:34.402Z,99165.00
2018-12-01T07:58:38.426Z,99172.00
2018-12-01T08:00:42.489Z,99177.00
2018-12-01T08:02:49.241Z,99179.00
2018-12-01T08:04:53.409Z,99186.00
2018-12-01T08:06:57.435Z,99176.00
2018-12-01T08:09:01.526Z,99181.00
2018-12-01T08:11:05.563Z,99179.00
2018-12-01T08:13:09.629Z,99176.00
2018-12-01T08:15:16.681Z,99175.00
2018-12-01T08:17:20.805Z,99178.00
2018-12-01T08:19:24.857Z,99170.00
2018-12-01T08:21:29.006Z,99170.00
2018-12-01T08:23:33.092Z,99157.00
2018-12-01T08:25:37.190Z,99157.00
2018-12-01T08:27:41.345Z,99170.00
2018-12-01T08:29:45.542Z,99171.00
2018-12-01T08:31:49.650Z,99166.00
2018-12-01T08:33:53.711Z,99176.00
2018-12-01T08:35:57.900Z,99177.00
2018-12-01T08:38:01.883Z,99168.00
2018-12-01T08:40:09.513Z,99156.00
2018-12-01T08:42:13.512Z,99163.00
2018-12-01T08:44:17.669Z,99159.00
2018-12-01T08:46:21.713Z,99161.00
2018-12-01T08:48:25.935Z,99160.00
2018-12-01T08:50:30.077Z,99164.00
2018-12-01T08:52:34.157Z,99166.00
2018-12-01T08:54:38.169Z,99173.00
2018-12-01T08:56:42.433Z,99177.00
2018-12-01T08:58:46.535Z,99175.00
2018-12-01T09:00:50.542Z,99174.00
2018-12-01T09:02:57.857Z,99169.00
2018-12-01T09:05:01.962Z,99168.00
2018-12-01T09:07:06.025Z,99179.00
2018-12-01T09:09:10.029Z,99161.00
2018-12-01T09:11:14.161Z,99172.00
2018-12-01T09:13:19.003Z,99173.00
2018-12-01T09:15:23.082Z,99172.00
2018-12-01T09:17:27.169Z,99177.00
2018-12-01T09:19:31.190Z,99181.00
2018-12-01T09:21:35.208Z,99186.00
2018-12-01T09:23:39.222Z,99192.00
2018-12-01T09:25:43.256Z,99192.00
2018-12-01T09:27:47.598Z,99182.00
2018-12-01T09:29:51.645Z,99190.00
2018-12-01T09:31:55.691Z,99191.00
2018-12-01T09:33:59.721Z,99198.00
2018-12-01T09:36:03.733Z,99200.00
2018-12-01T09:38:07.769Z,99203.00
2018-12-01T09:40:14.476Z,99194.00
2018-12-01T09:42:18.506Z,99192.00
2018-12-01T09:44:22.502Z,99191.00
2018-12-01T09:46:26.563Z,99189.00
2018-12-01T09:48:30.573Z,99193.00
2018-12-01T09:50:34.734Z,99194.00
2018-12-01T09:52:38.728Z,99192.00
2018-12-01T09:54:43.004Z,99198.00
2018-12-01T09:56:47.002Z,99193.00
2018-12-01T09:58:51.045Z,99197.00
2018-12-01T10:00:55.061Z,99193.00
2018-12-01T10:03:00.671Z,99183.00
2018-12-01T10:05:05.541Z,99172.00
2018-12-01T10:07:10.352Z,99170.00
2018-12-01T10:09:14.588Z,99183.00
2018-12-01T10:11:19.377Z,99183.00
2018-12-01T10:13:23.741Z,99176.00
2018-12-01T10:15:33.016Z,99175.00
2018-12-01T10:17:37.058Z,99159.00
2018-12-01T10:19:41.174Z,99156.00
2018-12-01T10:21:45.313Z,99146.00
2018-12-01T10:23:49.335Z,99147.00
2018-12-01T10:25:53.406Z,99139.00
2018-12-01T10:27:57.456Z,99123.00
2018-12-01T10:30:01.519Z,99113.00
2018-12-01T10:32:05.681Z,99113.00
2018-12-01T10:34:09.786Z,99113.00
2018-12-01T10:36:13.883Z,99110.00
2018-12-01T10:38:18.372Z,99119.00
2018-12-01T10:40:22.412Z,99111.00
2018-12-01T10:42:26.462Z,99118.00
2018-12-01T10:44:30.514Z,99107.00
2018-12-01T10:46:34.589Z,99107.00
2018-12-01T10:48:38.697Z,99113.00
2018-12-01T10:50:42.768Z,99112.00
2018-12-01T10:52:47.731Z,99103.00
2018-12-01T10:54:51.877Z,99120.00
2018-12-01T10:56:56.021Z,99110.00
2018-12-01T10:59:00.062Z,99113.00
2018-12-01T11:01:09.372Z,99102.00
2018-12-01T11:03:18.898Z,99106.00
2018-12-01T11:05:22.980Z,99101.00
2018-12-01T11:07:27.072Z,99105.00
2018-12-01T11:09:31.158Z,99102.00
2018-12-01T11:11:35.224Z,99104.00
2018-12-01T11:13:39.240Z,99102.00
2018-12-01T11:15:43.345Z,99110.00
2018-12-01T11:17:47.373Z,99105.00
2018-12-01T11:19:51.474Z,99107.00
2018-12-01T11:21:55.486Z,99113.00
2018-12-01T11:23:59.561Z,99107.00
2018-12-01T11:26:03.771Z,99103.00
2018-12-01T11:28:07.873Z,99095.00
2018-12-01T11:30:17.449Z,99096.00
2018-12-01T11:32:21.503Z,99092.00
2018-12-01T11:34:25.505Z,99078.00
2018-12-01T11:36:29.546Z,99088.00
2018-12-01T11:38:33.639Z,99083.00
2018-12-01T11:40:37.727Z,99077.00
2018-12-01T11:42:41.773Z,99093.00
2018-12-01T11:44:45.790Z,99076.00
2018-12-01T11:46:49.865Z,99074.00
2018-12-01T11:48:53.894Z,99068.00
2018-12-01T11:50:57.949Z,99078.00
2018-12-01T11:53:01.992Z,99068.00
2018-12-01T11:55:09.980Z,99058.00
2018-12-01T11:57:14.081Z,99066.00
2018-12-01T11:59:18.177Z,99061.00
2018-12-01T12:01:22.282Z,99067.00
2018-12-01T12:03:26.363Z,99058.00
2018-12-01T12:05:30.395Z,99044.00
2018-12-01T12:07:51.714Z,99042.00
2018-12-01T12:09:55.939Z,99032.00
2018-12-01T12:11:59.982Z,99033.00
2018-12-01T12:14:04.026Z,99026.00
2018-12-01T12:16:08.227Z,99019.00
2018-12-01T12:18:12.501Z,99009.00
2018-12-01T12:20:16.598Z,99023.00
2018-12-01T12:22:20.607Z,99011.00
2018-12-01T12:24:24.695Z,99010.00
2018-12-01T12:26:28.803Z,99000.00
2018-12-01T12:28:32.814Z,99009.00
2018-12-01T12:30:36.910Z,99005.00
2018-12-01T12:32:41.005Z,99005.00
2018-12-01T12:34:45.035Z,98998.00
2018-12-01T12:36:49.129Z,99007.00
2018-12-01T12:38:53.357Z,99002.00
2018-12-01T12:40:57.514Z,99001.00
2018-12-01T12:43:01.953Z,98997.00
2018-12-01T12:45:08.870Z,98995.00
2018-12-01T12:47:12.898Z,98992.00
2018-12-01T12:49:16.963Z,98992.00
2018-12-01T12:51:21.046Z,98991.00
2018-12-01T12:53:25.057Z,98977.00
2018-12-01T12:55:29.102Z,98979.00
2018-12-01T12:57:33.122Z,98982.00
2018-12-01T12:59:37.189Z,98985.00
2018-12-01T13:01:41.320Z,98980.00
2018-12-01T13:03:45.347Z,98984.00
2018-12-01T13:05:49.509Z,98975.00
2018-12-01T13:07:53.911Z,98976.00
2018-12-01T13:09:57.909Z,98968.00
2018-12-01T13:12:01.991Z,98984.00
2018-12-01T13:14:06.833Z,98974.00
2018-12-01T13:16:12.074Z,98965.00
2018-12-01T13:18:16.298Z,98968.00
2018-12-01T13:20:22.584Z,98974.00
2018-12-01T13:22:26.822Z,98966.00
2018-12-01T13:24:30.833Z,98972.00
2018-12-01T13:26:34.893Z,98968.00
2018-12-01T13:28:38.970Z,98961.00
2018-12-01T13:30:46.384Z,98955.00
2018-12-01T13:32:50.450Z,98956.00
2018-12-01T13:34:54.491Z,98951.00
2018-12-01T13:36:58.506Z,98956.00
2018-12-01T13:39:02.551Z,98954.00
2018-12-01T13:41:06.787Z,98951.00
2018-12-01T13:43:10.890Z,98955.00
2018-12-01T13:45:17.195Z,98950.00
2018-12-01T13:47:21.216Z,98947.00
2018-12-01T13:49:25.269Z,98948.00
2018-12-01T13:51:29.317Z,98945.00
2018-12-01T13:53:33.445Z,98951.00
2018-12-01T13:55:37.588Z,98947.00
2018-12-01T13:57:41.638Z,98943.00
2018-12-01T13:59:45.711Z,98932.00
2018-12-01T14:01:49.878Z,98941.00
2018-12-01T14:03:53.941Z,98936.00
2018-12-01T14:05:58.139Z,98940.00
2018-12-01T14:08:02.341Z,98936.00
2018-12-01T14:10:22.486Z,98943.00
2018-12-01T14:12:26.528Z,98940.00
2018-12-01T14:14:30.668Z,98940.00
2018-12-01T14:16:34.727Z,98939.00
2018-12-01T14:18:38.734Z,98933.00
2018-12-01T14:20:42.891Z,98931.00
2018-12-01T14:22:48.343Z,98937.00
2018-12-01T14:24:52.433Z,98940.00
2018-12-01T14:26:56.560Z,98919.00
2018-12-01T14:29:00.622Z,98929.00
2018-12-01T14:31:06.750Z,98942.00
2018-12-01T14:33:12.359Z,98937.00
2018-12-01T14:35:21.285Z,98930.00
2018-12-01T14:37:25.298Z,98924.00
2018-12-01T14:39:29.448Z,98939.00
2018-12-01T14:41:33.464Z,98924.00
2018-12-01T14:43:37.547Z,98921.00
2018-12-01T14:45:42.750Z,98918.00
2018-12-01T14:47:46.922Z,98921.00
2018-12-01T14:49:50.985Z,98920.00
2018-12-01T14:51:55.068Z,98915.00
2018-12-01T14:53:59.065Z,98920.00
2018-12-01T14:56:03.167Z,98916.00
2018-12-01T14:58:08.157Z,98907.00
2018-12-01T15:00:21.007Z,98918.00
2018-12-01T15:02:25.001Z,98916.00
2018-12-01T15:04:29.044Z,98907.00
2018-12-01T15:06:33.036Z,98908.00
2018-12-01T15:08:37.217Z,98912.00
2018-12-01T15:10:41.230Z,98909.00
2018-12-01T15:12:45.257Z,98905.00
2018-12-01T15:14:49.265Z,98894.00
2018-12-01T15:16:53.405Z,98892.00
2018-12-01T15:18:57.425Z,98894.00
2018-12-01T15:21:01.486Z,98884.00
2018-12-01T15:23:06.682Z,98892.00
2018-12-01T15:25:13.650Z,98895.00
2018-12-01T15:27:17.667Z,98890.00
2018-12-01T15:29:23.040Z,98882.00
2018-12-01T15:31:27.050Z,98883.00
2018-12-01T15:33:31.066Z,98878.00
2018-12-01T15:35:35.205Z,98876.00
2018-12-01T15:37:39.209Z,98878.00
2018-12-01T15:39:43.344Z,98875.00
2018-12-01T15:41:47.343Z,98872.00
2018-12-01T15:43:51.365Z,98869.00
2018-12-01T15:45:55.405Z,98869.00
2018-12-01T15:47:59.413Z,98866.00
2018-12-01T15:50:03.491Z,98868.00
2018-12-01T15:52:07.503Z,98869.00
2018-12-01T15:54:11.550Z,98871.00
2018-12-01T15:56:15.542Z,98872.00
2018-12-01T15:58:19.654Z,98861.00
2018-12-01T16:00:25.472Z,98872.00
2018-12-01T16:02:29.484Z,98863.00
2018-12-01T16:04:33.507Z,98858.00
2018-12-01T16:06:37.571Z,98858.00
2018-12-01T16:08:41.622Z,98860.00
2018-12-01T16:10:45.818Z,98853.00
2018-12-01T16:12:54.757Z,98850.00
2018-12-01T16:14:58.958Z,98842.00
2018-12-01T16:17:02.994Z,98845.00
2018-12-01T16:19:07.209Z,98831.00
2018-12-01T16:21:11.245Z,98836.00
2018-12-01T16:23:15.308Z,98829.00
2018-12-01T16:25:21.598Z,98826.00
2018-12-01T16:27:25.617Z,98824.00
2018-12-01T16:29:29.699Z,98825.00
2018-12-01T16:31:33.881Z,98826.00
2018-12-01T16:33:37.900Z,98821.00
2018-12-01T16:35:41.910Z,98813.00
2018-12-01T16:37:45.947Z,98816.00
2018-12-01T16:39:50.117Z,98810.00
2018-12-01T16:41:54.281Z,98815.00
2018-12-01T16:43:58.313Z,98801.00
2018-12-01T16:46:02.460Z,98801.00
2018-12-01T16:48:06.783Z,98809.00
2018-12-01T16:50:14.562Z,98794.00
2018-12-01T16:52:18.773Z,98794.00
2018-12-01T16:54:23.370Z,98788.00
2018-12-01T16:56:27.402Z,98791.00
2018-12-01T16:58:31.442Z,98782.00
2018-12-01T17:00:35.519Z,98784.00
2018-12-01T17:02:39.552Z,98808.00
2018-12-01T17:04:43.570Z,98797.00
2018-12-01T17:06:47.744Z,98795.00
2018-12-01T17:08:53.683Z,98785.00
2018-12-01T17:10:57.957Z,98787.00
2018-12-01T17:13:02.073Z,98795.00
2018-12-01T17:15:10.571Z,98784.00
2018-12-01T17:17:14.689Z,98780.00
2018-12-01T17:19:18.863Z,98783.00
2018-12-01T17:21:24.028Z,98782.00
2018-12-01T17:23:28.197Z,98773.00
2018-12-01T17:25:32.551Z,98767.00
2018-12-01T17:27:36.830Z,98757.00
2018-12-01T17:29:40.846Z,98757.00
2018-12-01T17:31:44.964Z,98751.00
2018-12-01T17:33:49.058Z,98755.00
2018-12-01T17:35:53.195Z,98759.00
2018-12-01T17:37:59.217Z,98748.00
2018-12-01T17:40:03.661Z,98751.00
2018-12-01T17:42:08.739Z,98743.00
2018-12-01T17:44:12.850Z,98748.00
2018-12-01T17:46:17.097Z,98730.00
2018-12-01T17:48:21.131Z,98731.00
2018-12-01T17:50:25.420Z,98732.00
2018-12-01T17:52:29.583Z,98721.00
2018-12-01T17:54:33.618Z,98731.00
2018-12-01T17:56:37.977Z,98717.00
2018-12-01T17:58:42.004Z,98709.00
2018-12-01T18:00:46.114Z,98709.00
2018-12-01T18:02:51.928Z,98703.00
2018-12-01T18:04:55.974Z,98694.00
2018-12-01T18:07:00.048Z,98695.00
2018-12-01T18:09:05.242Z,98686.00
2018-12-01T18:11:10.624Z,98688.00
2018-12-01T18:13:14.667Z,98675.00
2018-12-01T18:15:19.399Z,98671.00
2018-12-01T18:17:24.389Z,98673.00
2018-12-01T18:19:28.470Z,98674.00
2018-12-01T18:21:32.521Z,98675.00
2018-12-01T18:23:36.606Z,98668.00
2018-12-01T18:25:46.073Z,98673.00
2018-12-01T18:27:52.317Z,98669.00
2018-12-01T18:29:56.377Z,98660.00
2018-12-01T18:32:00.957Z,98665.00
2018-12-01T18:34:12.957Z,98652.00
2018-12-01T18:36:17.041Z,98650.00
2018-12-01T18:38:21.066Z,98641.00
2018-12-01T18:40:25.078Z,98650.00
2018-12-01T18:42:29.166Z,98642.00
2018-12-01T18:44:33.146Z,98637.00
2018-12-01T18:46:37.322Z,98634.00
2018-12-01T18:48:41.343Z,98617.00
2018-12-01T18:50:45.421Z,98625.00
2018-12-01T18:53:00.362Z,98616.00
2018-12-01T18:55:04.721Z,98617.00
2018-12-01T18:57:08.961Z,98600.00
2018-12-01T18:59:12.978Z,98615.00
2018-12-01T19:01:17.111Z,98611.00
2018-12-01T19:03:23.373Z,98605.00
2018-12-01T19:05:27.405Z,98606.00
2018-12-01T19:07:31.421Z,98614.00
2018-12-01T19:09:35.522Z,98601.00
2018-12-01T19:11:39.591Z,98605.00
2018-12-01T19:13:43.593Z,98604.00
2018-12-01T19:15:47.640Z,98603.00
2018-12-01T19:17:51.645Z,98599.00
2018-12-01T19:19:55.703Z,98590.00
2018-12-01T19:21:59.757Z,98595.00
2018-12-01T19:24:03.785Z,98594.00
2018-12-01T19:26:07.859Z,98585.00
2018-12-01T19:28:11.988Z,98588.00
2018-12-01T19:30:17.790Z,98585.00
2018-12-01T19:32:21.924Z,98581.00
2018-12-01T19:34:26.005Z,98562.00
2018-12-01T19:36:30.061Z,98581.00
2018-12-01T19:38:34.238Z,98577.00
2018-12-01T19:40:38.314Z,98561.00
2018-12-01T19:42:42.301Z,98557.00
2018-12-01T19:44:46.350Z,98556.00
2018-12-01T19:46:50.382Z,98555.00
2018-12-01T19:48:54.505Z,98553.00
2018-12-01T19:50:58.585Z,98549.00
2018-12-01T19:53:02.674Z,98545.00
2018-12-01T19:55:12.156Z,98546.00
2018-12-01T19:57:16.320Z,98540.00
2018-12-01T19:59:20.353Z,98539.00
2018-12-01T20:01:24.614Z,98529.00
2018-12-01T20:03:31.362Z,98542.00
2018-12-01T20:05:35.395Z,98538.00
2018-12-01T20:07:39.597Z,98525.00
2018-12-01T20:09:43.744Z,98525.00
2018-12-01T20:11:47.782Z,98523.00
2018-12-01T20:13:52.596Z,98526.00
2018-12-01T20:16:04.850Z,98526.00
2018-12-01T20:18:16.822Z,98527.00
2018-12-01T20:20:21.336Z,98519.00
2018-12-01T20:22:25.459Z,98521.00
2018-12-01T20:24:29.729Z,98519.00
2018-12-01T20:26:35.158Z,98510.00
2018-12-01T20:28:39.294Z,98505.00
2018-12-01T20:30:50.955Z,98510.00
2018-12-01T20:32:55.113Z,98508.00
2018-12-01T20:34:59.106Z,98498.00
2018-12-01T20:37:08.110Z,98496.00
2018-12-01T20:39:18.833Z,98497.00
2018-12-01T20:41:22.931Z,98495.00
2018-12-01T20:43:27.122Z,98495.00
2018-12-01T20:45:31.306Z,98492.00
2018-12-01T20:47:35.358Z,98493.00
2018-12-01T20:49:39.547Z,98479.00
2018-12-01T20:51:43.686Z,98478.00
2018-12-01T20:53:47.758Z,98493.00
2018-12-01T20:55:56.045Z,98474.00
2018-12-01T20:58:02.946Z,98478.00
2018-12-01T21:00:10.803Z,98474.00
2018-12-01T21:02:14.901Z,98472.00
2018-12-01T21:04:19.045Z,98471.00
2018-12-01T21:06:23.161Z,98466.00
2018-12-01T21:08:27.952Z,98467.00
2018-12-01T21:10:34.887Z,98469.00
2018-12-01T21:12:38.958Z,98469.00
2018-12-01T21:14:43.053Z,98460.00
2018-12-01T21:16:47.118Z,98472.00
2018-12-01T21:18:51.145Z,98452.00
2018-12-01T21:20:55.308Z,98461.00
2018-12-01T21:22:59.407Z,98460.00
2018-12-01T21:25:03.534Z,98455.00
2018-12-01T21:27:07.616Z,98456.00
2018-12-01T21:29:11.618Z,98444.00
2018-12-01T21:31:15.751Z,98445.00
2018-12-01T21:33:22.822Z,98440.00
2018-12-01T21:35:26.877Z,98422.00
2018-12-01T21:37:30.951Z,98440.00
2018-12-01T21:39:34.978Z,98426.00
2018-12-01T21:41:39.022Z,98423.00
2018-12-01T21:43:43.056Z,98424.00
2018-12-01T21:45:47.033Z,98418.00
2018-12-01T21:47:51.056Z,98409.00
2018-12-01T21:49:55.129Z,98405.00
2018-12-01T21:51:59.216Z,98407.00
2018-12-01T21:54:03.386Z,98404.00
2018-12-01T21:56:07.365Z,98398.00
2018-12-01T21:58:11.361Z,98402.00
2018-12-01T22:00:18.495Z,98398.00
2018-12-01T22:02:22.665Z,98390.00
2018-12-01T22:04:26.789Z,98395.00
2018-12-01T22:06:30.770Z,98391.00
2018-12-01T22:08:36.083Z,98390.00
2018-12-01T22:10:40.414Z,98387.00
2018-12-01T22:12:44.560Z,98381.00
2018-12-01T22:14:48.698Z,98387.00
2018-12-01T22:16:52.703Z,98378.00
2018-12-01T22:18:56.808Z,98391.00
2018-12-01T22:21:00.962Z,98384.00
2018-12-01T22:23:06.172Z,98388.00
2018-12-01T22:25:11.111Z,98387.00
2018-12-01T22:27:15.112Z,98380.00
2018-12-01T22:29:19.164Z,98385.00
2018-12-01T22:31:23.172Z,98378.00
2018-12-01T22:33:28.329Z,98386.00
2018-12-01T22:35:32.432Z,98381.00
2018-12-01T22:37:36.494Z,98378.00
2018-12-01T22:39:41.187Z,98386.00
2018-12-01T22:41:45.197Z,98385.00
2018-12-01T22:43:49.312Z,98377.00
2018-12-01T22:45:53.505Z,98375.00
2018-12-01T22:48:00.645Z,98377.00
2018-12-01T22:50:09.765Z,98374.00
2018-12-01T22:52:13.809Z,98378.00
2018-12-01T22:54:17.833Z,98378.00
2018-12-01T22:56:21.879Z,98377.00
2018-12-01T22:58:26.084Z,98367.00
2018-12-01T23:00:39.662Z,98363.00
2018-12-01T23:02:43.720Z,98366.00
2018-12-01T23:04:47.950Z,98360.00
2018-12-01T23:06:52.040Z,98343.00
2018-12-01T23:08:56.218Z,98353.00
2018-12-01T23:11:00.268Z,98338.00
2018-12-01T23:13:04.289Z,98352.00
2018-12-01T23:15:12.770Z,98341.00
2018-12-01T23:17:16.844Z,98349.00
2018-12-01T23:19:20.848Z,98341.00
2018-12-01T23:21:25.358Z,98342.00
2018-12-01T23:23:29.354Z,98349.00
2018-12-01T23:25:33.354Z,98338.00
2018-12-01T23:27:37.558Z,98341.00
2018-12-01T23:29:41.591Z,98341.00
2018-12-01T23:31:45.602Z,98342.00
2018-12-01T23:33:49.738Z,98340.00
2018-12-01T23:35:53.812Z,98342.00
2018-12-01T23:37:58.229Z,98336.00
2018-12-01T23:40:02.277Z,98339.00
2018-12-01T23:42:06.419Z,98344.00
2018-12-01T23:44:14.646Z,98349.00
2018-12-01T23:46:18.696Z,98334.00
2018-12-01T23:48:22.890Z,98343.00
2018-12-01T23:50:27.526Z,98332.00
2018-12-01T23:52:31.581Z,98329.00
2018-12-01T23:54:35.580Z,98326.00
2018-12-01T23:56:39.605Z,98316.00
2018-12-01T23:58:43.679Z,98325.00
